Time;durP1;ratioP1;P1;durP2;ratioP2;P2;SDS_P1;SDS_P2;PMS_P1;PMS_P2;Temp;Humidity;BMP_temperature;BMP_pressure;BME280_temperature;BME280_humidity;BME280_pressure;Samples;Min_cycle;Max_cycle;Signal;HPM_P1;HPM_P2
2022/04/01 00:00:26;;;;;;;16.65;10.48;;;;;;;5.41;99.20;96695.75;5048196;28;20025;-64
2022/04/01 00:02:52;;;;;;;23.13;12.10;;;;;;;5.40;99.48;96697.50;5043624;28;20217;-64
2022/04/01 00:05:18;;;;;;;19.95;11.10;;;;;;;5.26;99.62;96688.38;5043526;28;20044;-64
2022/04/01 00:07:44;;;;;;;20.83;11.77;;;;;;;5.29;100.00;96691.75;5044702;28;20364;-64
2022/04/01 00:10:10;;;;;;;24.98;11.90;;;;;;;5.28;100.00;96689.19;5065904;28;20058;-64
2022/04/01 00:12:43;;;;;;;21.20;11.38;;;;;;;5.28;100.00;96695.25;5067353;28;20021;-64
2022/04/01 00:15:09;;;;;;;18.08;10.70;;;;;;;5.27;100.00;96687.47;5066095;28;20027;-64
2022/04/01 00:17:35;;;;;;;21.42;11.45;;;;;;;5.28;100.00;96689.19;5066708;28;20017;-64
2022/04/01 00:20:00;;;;;;;19.67;10.63;;;;;;;5.16;100.00;96694.75;5066604;28;20017;-64
2022/04/01 00:22:26;;;;;;;17.92;10.73;;;;;;;5.10;100.00;96689.72;5065328;28;20094;-64
2022/04/01 00:24:51;;;;;;;23.70;11.75;;;;;;;5.10;100.00;96694.94;5066619;28;20009;-64
2022/04/01 00:27:17;;;;;;;23.17;12.32;;;;;;;5.14;100.00;96696.56;5066508;28;20024;-64
2022/04/01 00:29:42;;;;;;;20.88;11.23;;;;;;;5.19;100.00;96694.69;5066201;28;20028;-64
2022/04/01 00:32:07;;;;;;;17.52;10.25;;;;;;;5.21;100.00;96693.72;5066248;28;20376;-64
2022/04/01 00:34:34;;;;;;;26.25;10.82;;;;;;;5.20;100.00;96691.16;5049995;28;20252;-64
2022/04/01 00:37:01;;;;;;;18.05;10.95;;;;;;;5.17;100.00;96701.69;5050012;28;20025;-64
2022/04/01 00:39:31;;;;;;;23.70;12.63;;;;;;;5.03;100.00;96690.81;5061760;28;20092;-64
2022/04/01 00:41:59;;;;;;;18.00;10.68;;;;;;;5.08;100.00;96696.72;5046797;28;20017;-64
2022/04/01 00:44:27;;;;;;;17.27;10.65;;;;;;;5.11;100.00;96689.69;5065280;28;20063;-64
2022/04/01 00:46:57;;;;;;;23.70;12.23;;;;;;;5.20;100.00;96688.56;5066118;28;20048;-64
2022/04/01 00:49:26;;;;;;;21.77;11.25;;;;;;;5.22;100.00;96694.59;5064715;28;20025;-64
2022/04/01 00:51:54;;;;;;;25.23;12.00;;;;;;;5.24;100.00;96698.00;5046604;28;20025;-64
2022/04/01 00:54:20;;;;;;;17.15;10.23;;;;;;;5.31;99.95;96699.53;5064385;28;20033;-64
2022/04/01 00:56:46;;;;;;;22.38;12.32;;;;;;;5.26;99.17;96710.09;5066707;28;20031;-64
2022/04/01 00:59:12;;;;;;;18.67;10.63;;;;;;;5.25;99.22;96710.16;5066422;28;20024;-64
2022/04/01 01:01:40;;;;;;;24.73;12.13;;;;;;;5.22;97.69;96711.06;5066545;28;20366;-64
2022/04/01 01:04:07;;;;;;;20.13;10.85;;;;;;;5.33;96.77;96708.16;5066578;28;20237;-64
2022/04/01 01:06:37;;;;;;;20.05;10.95;;;;;;;5.28;97.60;96699.63;5066347;28;20084;-64
2022/04/01 01:09:03;;;;;;;20.33;10.77;;;;;;;5.20;97.79;96712.03;5066263;28;20035;-64
2022/04/01 01:11:29;;;;;;;22.40;12.05;;;;;;;5.17;97.59;96706.88;5048508;28;20033;-64
2022/04/01 01:13:55;;;;;;;25.20;12.85;;;;;;;5.17;97.90;96706.88;5046284;28;20093;-64
2022/04/01 01:16:21;;;;;;;22.35;11.93;;;;;;;5.18;97.98;96713.81;5047182;28;20025;-64
2022/04/01 01:19:10;;;;;;;21.33;12.10;;;;;;;5.24;98.04;96708.41;5046338;28;20021;-64
2022/04/01 01:21:37;;;;;;;22.52;11.32;;;;;;;5.18;97.33;96708.59;5046128;28;20080;-64
2022/04/01 01:24:05;;;;;;;21.88;11.50;;;;;;;5.25;97.22;96705.75;5046016;28;20017;-64
2022/04/01 01:26:32;;;;;;;21.27;12.10;;;;;;;5.22;96.32;96705.03;5045969;28;20024;-64
2022/04/01 01:28:58;;;;;;;20.10;11.52;;;;;;;5.33;95.88;96702.94;5059912;28;20020;-64
2022/04/01 01:31:25;;;;;;;20.15;11.63;;;;;;;5.14;95.61;96706.97;5048287;28;20092;-64
2022/04/01 01:33:51;;;;;;;22.55;11.82;;;;;;;5.21;96.32;96700.69;5065521;28;20066;-64
2022/04/01 01:36:17;;;;;;;28.40;13.15;;;;;;;5.17;96.58;96701.69;5064881;28;20025;-64
2022/04/01 01:38:43;;;;;;;20.50;11.07;;;;;;;5.19;96.48;96699.91;5064063;28;20178;-64
2022/04/01 01:41:08;;;;;;;26.00;13.38;;;;;;;5.24;96.89;96703.19;5058357;28;20103;-64
2022/04/01 01:43:33;;;;;;;21.73;12.05;;;;;;;5.14;97.39;96702.63;5045687;28;20045;-64
2022/04/01 01:45:59;;;;;;;24.50;12.95;;;;;;;5.10;97.54;96700.16;5045633;28;20013;-64
2022/04/01 01:48:25;;;;;;;24.77;12.73;;;;;;;5.03;98.06;96698.63;5045504;28;20025;-64
2022/04/01 01:56:18;;;;;;;26.30;13.70;;;;;;;4.89;98.54;96700.75;5045320;28;20084;-64
2022/04/01 01:58:44;;;;;;;25.70;14.23;;;;;;;4.83;98.66;96696.56;5045335;28;20031;-64
2022/04/01 02:01:10;;;;;;;28.10;15.55;;;;;;;4.83;99.32;96700.91;5045303;28;20021;-64
2022/04/01 02:03:36;;;;;;;29.30;13.88;;;;;;;4.79;98.99;96694.94;5045274;28;20101;-64
2022/04/01 02:06:05;;;;;;;30.00;14.55;;;;;;;4.69;99.45;96703.91;5045209;28;20025;-64
2022/04/01 02:08:30;;;;;;;33.13;16.08;;;;;;;4.77;99.22;96706.31;5045152;28;20021;-64
2022/04/01 02:10:56;;;;;;;26.50;15.00;;;;;;;4.77;99.44;96701.09;5045072;28;20063;-64
2022/04/01 02:13:23;;;;;;;26.67;14.60;;;;;;;4.81;99.80;96705.34;5045045;28;20313;-64
2022/04/01 02:15:49;;;;;;;25.25;14.55;;;;;;;4.74;99.17;96706.41;5044929;28;20025;-64
2022/04/01 02:18:14;;;;;;;29.58;14.50;;;;;;;4.80;98.65;96701.84;5044981;28;20063;-64
2022/04/01 02:20:39;;;;;;;28.52;15.07;;;;;;;4.73;99.53;96705.53;5044918;28;20021;-64
2022/04/01 02:23:05;;;;;;;26.42;14.40;;;;;;;4.68;98.34;96707.41;5044847;28;20021;-64
2022/04/01 02:25:31;;;;;;;23.40;12.13;;;;;;;4.67;98.02;96704.84;5045915;28;20019;-64
2022/04/01 02:27:57;;;;;;;26.23;13.77;;;;;;;4.62;98.38;96702.34;5044849;28;20025;-64
2022/04/01 02:30:23;;;;;;;23.48;13.25;;;;;;;4.61;98.44;96705.00;5044813;28;20018;-64
2022/04/01 02:32:49;;;;;;;26.15;14.07;;;;;;;4.60;98.93;96705.91;5044010;28;20049;-64
2022/04/01 02:35:15;;;;;;;32.50;15.93;;;;;;;4.62;99.34;96711.94;5053933;28;20017;-64
2022/04/01 02:37:41;;;;;;;25.95;12.82;;;;;;;4.71;99.73;96703.88;5064285;28;20016;-64
2022/04/01 02:40:09;;;;;;;31.08;16.25;;;;;;;4.72;99.10;96714.25;5064026;28;20023;-64
2022/04/01 02:42:34;;;;;;;26.30;13.48;;;;;;;4.80;98.41;96711.41;5063848;28;20025;-64
2022/04/01 02:45:00;;;;;;;27.73;13.57;;;;;;;4.87;97.78;96720.81;5056719;28;20020;-64
2022/04/01 02:47:26;;;;;;;27.40;13.60;;;;;;;4.89;97.53;96721.59;5044527;28;20377;-64
2022/04/01 02:49:52;;;;;;;24.58;13.13;;;;;;;4.73;97.96;96715.97;5044874;28;20076;-64
2022/04/01 02:52:17;;;;;;;23.02;12.48;;;;;;;4.84;97.06;96713.06;5044386;28;20065;-64
2022/04/01 02:54:42;;;;;;;30.15;15.48;;;;;;;4.73;97.45;96720.31;5048691;28;20013;-64
2022/04/01 02:57:09;;;;;;;26.42;13.95;;;;;;;4.72;97.54;96708.19;5062360;28;20349;-64
2022/04/01 02:59:35;;;;;;;30.73;15.30;;;;;;;4.81;97.27;96713.97;5052805;28;20071;-64
2022/04/01 03:02:00;;;;;;;24.20;13.65;;;;;;;4.78;97.33;96708.03;5044295;28;20041;-64
2022/04/01 03:04:26;;;;;;;26.33;13.40;;;;;;;4.78;97.37;96713.22;5044165;28;20032;-64
2022/04/01 03:06:51;;;;;;;24.85;13.25;;;;;;;4.70;97.72;96704.75;5044132;28;20199;-64
2022/04/01 03:09:17;;;;;;;25.95;12.88;;;;;;;4.67;98.29;96715.25;5044077;28;20104;-64
2022/04/01 03:11:43;;;;;;;29.52;13.77;;;;;;;4.75;98.32;96718.53;5044049;28;20032;-64
2022/04/01 03:14:11;;;;;;;24.88;13.50;;;;;;;4.66;97.86;96709.22;5044053;28;20032;-64
2022/04/01 03:16:38;;;;;;;22.60;12.48;;;;;;;4.66;97.98;96721.38;5043943;28;20021;-64
2022/04/01 03:19:04;;;;;;;23.77;12.48;;;;;;;4.68;98.10;96717.00;5056645;28;20080;-64
2022/04/01 03:21:30;;;;;;;23.98;12.38;;;;;;;4.68;97.87;96722.19;5063359;28;20032;-64
2022/04/01 03:23:56;;;;;;;24.95;12.30;;;;;;;4.61;98.60;96720.63;5063128;28;20025;-64
2022/04/01 03:26:21;;;;;;;22.77;13.27;;;;;;;4.59;98.52;96723.31;5063316;28;20021;-64
2022/04/01 03:28:48;;;;;;;22.38;11.68;;;;;;;4.55;99.39;96720.81;5054709;28;20092;-64
2022/04/01 03:31:14;;;;;;;23.58;13.10;;;;;;;4.53;98.64;96722.59;5063368;28;20364;-64
2022/04/01 03:33:41;;;;;;;22.08;12.35;;;;;;;4.56;98.89;96723.38;5063019;28;20032;-64
2022/04/01 03:36:08;;;;;;;20.27;11.63;;;;;;;4.55;99.34;96729.47;5063395;28;20070;-64
2022/04/01 03:38:34;;;;;;;21.98;13.13;;;;;;;4.58;98.90;96728.56;5063726;28;20372;-64
2022/04/01 03:41:01;;;;;;;22.13;12.98;;;;;;;4.52;99.04;96732.16;5063689;28;20059;-64
2022/04/01 03:43:28;;;;;;;25.52;12.38;;;;;;;4.53;99.36;96733.00;5064473;28;20025;-64
2022/04/01 03:45:55;;;;;;;21.05;12.07;;;;;;;4.54;99.05;96725.16;5066264;28;20205;-64
2022/04/01 03:48:28;;;;;;;24.48;12.60;;;;;;;4.53;98.90;96726.91;5065125;28;20027;-64
2022/04/01 03:50:58;;;;;;;27.65;13.95;;;;;;;4.55;99.47;96720.81;5048073;28;20051;-64
2022/04/01 03:53:27;;;;;;;25.40;12.68;;;;;;;4.58;99.23;96720.75;5047780;28;20405;-64
2022/04/01 03:55:55;;;;;;;20.48;11.82;;;;;;;4.55;99.70;96718.22;5054266;28;20324;-64
2022/04/01 03:58:26;;;;;;;22.55;12.73;;;;;;;4.52;99.45;96718.28;5065347;28;20062;-64
2022/04/01 04:00:52;;;;;;;30.13;14.80;;;;;;;4.52;99.47;96718.28;5060567;28;20128;-63
2022/04/01 04:03:18;;;;;;;25.70;14.32;;;;;;;4.55;98.81;96720.81;5046668;28;20278;-65
2022/04/01 04:05:47;;;;;;;29.42;12.90;;;;;;;4.49;98.58;96722.66;5051712;28;20199;-65
2022/04/01 04:08:12;;;;;;;32.83;15.18;;;;;;;4.53;98.64;96724.28;5065647;28;20017;-65
2022/04/01 04:10:39;;;;;;;28.95;15.25;;;;;;;4.45;99.29;96725.38;5065385;28;20025;-65
2022/04/01 04:13:06;;;;;;;26.00;13.82;;;;;;;4.42;99.10;96721.13;5065873;28;20036;-65
2022/04/01 04:16:09;;;;;;;29.60;14.82;;;;;;;4.42;99.08;96728.06;5062427;28;20216;-65
2022/04/01 04:18:58;;;;;;;29.77;12.88;;;;;;;4.43;99.02;96733.25;5050155;28;20264;-65
2022/04/01 04:21:31;;;;;;;23.27;12.73;;;;;;;4.45;99.15;96731.47;5047292;28;20064;-65
2022/04/01 04:23:59;;;;;;;25.65;13.65;;;;;;;4.29;99.14;96731.88;5045852;28;20024;-65
2022/04/01 04:26:31;;;;;;;25.38;15.38;;;;;;;4.38;98.82;96735.13;5057182;28;20024;-65
2022/04/01 04:29:06;;;;;;;30.50;15.27;;;;;;;4.31;99.10;96738.75;5065631;28;20321;-65
2022/04/01 04:31:35;;;;;;;29.45;14.82;;;;;;;4.36;99.76;96739.50;5065546;28;20356;-65
2022/04/01 04:34:04;;;;;;;27.77;15.20;;;;;;;4.31;99.05;96738.75;5065161;28;20033;-65
2022/04/01 04:36:41;;;;;;;27.40;16.20;;;;;;;4.38;99.30;96740.34;5066420;28;20025;-65
2022/04/01 04:39:15;;;;;;;26.45;13.45;;;;;;;4.41;99.29;96739.41;5065333;28;20021;-65
2022/04/01 04:41:42;;;;;;;25.30;11.85;;;;;;;4.47;99.14;96740.06;5066839;28;20317;-65
2022/04/01 04:44:10;;;;;;;32.90;16.10;;;;;;;4.44;98.99;96744.53;5066724;28;20368;-65
2022/04/01 04:46:36;;;;;;;26.13;14.60;;;;;;;4.37;99.73;96745.59;5066925;28;20331;-65
2022/04/01 04:49:03;;;;;;;30.80;15.57;;;;;;;4.43;99.82;96751.47;5066632;28;20320;-65
2022/04/01 04:51:28;;;;;;;32.70;14.73;;;;;;;4.41;99.74;96755.88;5066606;28;20306;-65
2022/04/01 04:53:59;;;;;;;31.63;15.57;;;;;;;4.38;99.35;96760.31;5066118;28;20078;-65
2022/04/01 04:56:25;;;;;;;29.08;14.95;;;;;;;4.34;99.61;96759.50;5066392;28;20029;-65
2022/04/01 04:58:53;;;;;;;29.05;14.77;;;;;;;4.28;100.00;96759.66;5066492;28;20025;-65
2022/04/01 05:01:42;;;;;;;34.15;16.15;;;;;;;4.24;100.00;96755.44;5065107;28;20052;-65
2022/04/01 05:04:29;;;;;;;32.72;15.82;;;;;;;4.27;100.00;96759.69;5076924;28;20381;-65
2022/04/01 05:06:57;;;;;;;31.17;15.68;;;;;;;4.41;100.00;96761.09;5073011;28;20024;-65
2022/04/01 05:09:31;;;;;;;29.38;14.13;;;;;;;4.49;99.92;96774.75;5085409;28;20344;-65
2022/04/01 05:12:05;;;;;;;22.85;13.88;;;;;;;4.56;99.67;96772.00;5071198;28;20021;-65
2022/04/01 05:14:55;;;;;;;27.17;14.43;;;;;;;4.53;99.28;96777.28;5054385;28;20024;-65
2022/04/01 05:17:26;;;;;;;24.90;13.00;;;;;;;4.44;99.16;96776.59;5047898;28;20044;-65
2022/04/01 05:20:00;;;;;;;27.83;15.50;;;;;;;4.46;99.61;96781.78;5051638;28;20037;-65
2022/04/01 05:22:53;;;;;;;29.90;13.82;;;;;;;4.43;99.31;96780.13;5060526;28;20051;-65
2022/04/01 05:25:20;;;;;;;28.75;14.52;;;;;;;4.52;99.70;96783.41;5053064;28;20272;-65
2022/04/01 05:27:53;;;;;;;29.33;15.60;;;;;;;4.35;100.00;96797.69;5044832;28;20212;-65
2022/04/01 05:30:20;;;;;;;28.30;14.05;;;;;;;4.43;99.23;96790.53;5044967;28;20028;-65
2022/04/01 05:33:08;;;;;;;33.05;16.13;;;;;;;4.32;99.60;96795.16;5044766;28;20349;-65
2022/04/01 05:35:38;;;;;;;29.38;14.65;;;;;;;4.45;99.73;96788.75;5045094;28;20336;-65
2022/04/01 05:38:05;;;;;;;26.60;12.75;;;;;;;4.53;99.23;96801.59;5053504;28;20269;-65
2022/04/01 05:40:31;;;;;;;26.10;12.65;;;;;;;4.41;98.65;96797.56;5056748;28;20212;-65
2022/04/01 05:42:58;;;;;;;25.00;13.30;;;;;;;4.53;98.64;96805.94;5054761;28;20021;-65
2022/04/01 05:45:26;;;;;;;32.60;15.90;;;;;;;4.42;99.48;96809.66;5044954;28;20021;-65
2022/04/01 05:47:52;;;;;;;30.92;14.88;;;;;;;4.43;99.20;96798.34;5044950;28;20324;-65
2022/04/01 05:50:18;;;;;;;25.85;14.13;;;;;;;4.45;99.00;96803.53;5044633;28;20340;-65
2022/04/01 05:52:47;;;;;;;23.70;13.23;;;;;;;4.48;99.48;96804.31;5044801;28;20021;-65
2022/04/01 05:55:15;;;;;;;27.27;14.07;;;;;;;4.60;99.62;96812.69;5064199;28;20029;-65
2022/04/01 05:57:41;;;;;;;25.90;14.07;;;;;;;4.63;98.89;96812.63;5056904;28;20197;-65
2022/04/01 06:00:12;;;;;;;30.13;14.93;;;;;;;4.52;98.26;96810.28;5054684;28;20217;-65
2022/04/01 06:02:59;;;;;;;25.48;13.95;;;;;;;4.48;98.22;96819.94;5053683;28;20325;-65
2022/04/01 06:05:47;;;;;;;37.60;16.08;;;;;;;4.53;98.53;96822.44;5049457;28;20067;-65
2022/04/01 06:08:27;;;;;;;25.63;12.50;;;;;;;4.59;98.28;96824.91;5046626;28;20020;-65
2022/04/01 06:11:24;;;;;;;32.45;14.88;;;;;;;4.53;98.49;96833.69;5052145;28;20088;-65
2022/04/01 06:14:02;;;;;;;31.05;14.85;;;;;;;4.51;97.66;96845.06;5044187;28;20027;-65
2022/04/01 06:16:42;;;;;;;32.38;13.20;;;;;;;4.47;97.56;96833.84;5044110;28;20085;-65
2022/04/01 06:19:15;;;;;;;28.00;13.50;;;;;;;4.50;98.22;96838.97;5043681;28;20033;-65
2022/04/01 06:21:53;;;;;;;29.23;14.30;;;;;;;4.46;98.22;96847.75;5046872;28;20025;-65
2022/04/01 06:25:00;;;;;;;27.90;12.93;;;;;;;4.47;97.89;96849.47;5070897;28;20043;-65
2022/04/01 06:27:28;;;;;;;25.77;14.30;;;;;;;4.52;98.13;96851.13;5068161;28;20032;-65
2022/04/01 06:30:05;;;;;;;28.25;13.93;;;;;;;4.50;98.36;96859.81;5064259;28;20063;-65
2022/04/01 06:32:52;;;;;;;29.58;13.23;;;;;;;4.46;98.30;96868.59;5083173;28;20043;-65
2022/04/01 06:35:19;;;;;;;25.42;13.70;;;;;;;4.46;96.99;96863.38;5083593;28;20043;-65
2022/04/01 06:38:05;;;;;;;30.67;12.30;;;;;;;4.43;97.48;96868.66;5083920;28;20334;-65
2022/04/01 06:40:56;;;;;;;27.90;13.90;;;;;;;4.43;97.07;96871.28;5065667;28;20029;-65
2022/04/01 06:43:23;;;;;;;29.33;11.98;;;;;;;4.42;97.49;96866.97;5048635;28;20033;-65
2022/04/01 06:45:48;;;;;;;35.13;14.07;;;;;;;4.36;97.98;96877.53;5056003;28;20091;-65
2022/04/01 06:48:13;;;;;;;26.63;12.65;;;;;;;4.39;98.11;96877.47;5051513;28;20029;-65
2022/04/01 06:50:41;;;;;;;27.00;12.82;;;;;;;4.36;97.72;96877.53;5063397;28;20386;-65
2022/04/01 06:53:06;;;;;;;24.65;13.85;;;;;;;4.35;98.51;96881.03;5063618;28;20021;-65
2022/04/01 06:55:32;;;;;;;25.48;12.80;;;;;;;4.39;98.41;96887.88;5054179;28;20044;-65
2022/04/01 06:57:57;;;;;;;26.40;12.60;;;;;;;4.37;98.94;96889.66;5083319;28;20415;-65
2022/04/01 07:00:26;;;;;;;29.85;13.73;;;;;;;4.36;98.19;96893.16;5082885;28;20028;-65
2022/04/01 07:02:51;;;;;;;26.98;13.07;;;;;;;4.50;98.32;96896.28;5083287;28;20067;-65
2022/04/01 07:05:17;;;;;;;30.60;14.27;;;;;;;4.56;98.29;96899.66;5083246;28;20328;-65
2022/04/01 07:07:42;;;;;;;27.15;13.80;;;;;;;4.50;98.83;96900.66;5083202;28;20025;-65
2022/04/01 07:10:10;;;;;;;31.90;11.98;;;;;;;4.55;98.24;96897.94;5083379;28;20031;-65
2022/04/01 07:12:37;;;;;;;25.27;13.13;;;;;;;4.52;98.37;96892.81;5083023;28;20212;-65
2022/04/01 07:15:03;;;;;;;24.73;11.80;;;;;;;4.64;96.81;96893.34;5083083;28;20250;-65
2022/04/01 07:17:29;;;;;;;24.25;11.85;;;;;;;4.56;96.55;96894.44;5064279;28;20093;-65
2022/04/01 07:19:54;;;;;;;27.60;14.48;;;;;;;4.45;97.68;96898.16;5051672;28;20453;-65
2022/04/01 07:22:20;;;;;;;31.15;14.52;;;;;;;4.65;95.93;96899.44;5050889;28;20328;-65
2022/04/01 07:24:46;;;;;;;27.60;13.27;;;;;;;4.72;94.92;96901.00;5054461;28;20316;-65
2022/04/01 07:27:11;;;;;;;29.00;15.52;;;;;;;4.52;95.01;96904.06;5048342;28;20025;-65
2022/04/01 07:29:38;;;;;;;30.58;15.70;;;;;;;4.53;95.88;96898.81;5048461;28;20264;-65
2022/04/01 07:34:49;;;;;;;31.73;15.43;;;;;;;4.57;94.90;96901.34;5048605;28;20064;-65
2022/04/01 07:37:14;;;;;;;32.83;17.35;;;;;;;4.55;93.94;96904.00;5060685;28;20250;-65
2022/04/01 07:39:40;;;;;;;34.80;15.35;;;;;;;4.44;94.79;96904.22;5074607;28;20024;-65
2022/04/01 07:42:06;;;;;;;26.70;13.27;;;;;;;4.47;95.20;96906.78;5068306;28;20031;-65
2022/04/01 07:44:32;;;;;;;33.88;14.73;;;;;;;4.53;95.06;96915.34;5080168;28;20101;-65
2022/04/01 07:46:57;;;;;;;35.28;15.95;;;;;;;4.59;94.42;96915.22;5069640;28;20251;-66
2022/04/01 07:49:23;;;;;;;28.15;13.77;;;;;;;4.60;94.51;96911.69;5074421;28;20305;-64
2022/04/01 07:51:49;;;;;;;30.08;13.65;;;;;;;4.53;94.52;96911.84;5075300;28;20020;-64
2022/04/01 07:54:15;;;;;;;34.45;16.40;;;;;;;4.41;95.51;96917.34;5080337;28;20021;-64
2022/04/01 07:56:41;;;;;;;36.28;16.67;;;;;;;4.41;96.95;96914.75;5079932;28;20269;-64
2022/04/01 07:59:14;;;;;;;40.15;17.30;;;;;;;4.36;95.47;96908.78;5070823;28;20020;-64
2022/04/01 08:01:39;;;;;;;;;;;;;;;4.50;94.84;96917.13;5072495;28;20029;-64
2022/04/01 08:04:05;;;;;;;25.80;13.23;;;;;;;4.60;96.23;96912.56;5078830;28;19904;-64
2022/04/01 08:06:30;;;;;;;28.35;13.45;;;;;;;4.62;95.55;96915.13;5066568;28;20025;-64
2022/04/01 08:08:58;;;;;;;24.92;11.90;;;;;;;4.72;95.14;96917.50;5077679;28;20021;-64
2022/04/01 08:11:27;;;;;;;29.40;14.02;;;;;;;4.50;94.23;96917.13;5072926;28;20212;-64
2022/04/01 08:13:54;;;;;;;26.00;13.55;;;;;;;4.67;94.97;96918.47;5069444;28;20024;-64
2022/04/01 08:16:19;;;;;;;32.00;14.20;;;;;;;4.78;94.92;96932.13;5079807;28;20051;-64
2022/04/01 08:18:45;;;;;;;28.38;14.23;;;;;;;4.65;93.96;96930.69;5067582;28;20277;-64
2022/04/01 08:21:10;;;;;;;28.08;14.88;;;;;;;4.67;94.29;96934.97;5075605;28;20312;-64
2022/04/01 08:23:37;;;;;;;21.85;11.85;;;;;;;4.69;94.93;96932.34;5074564;28;20354;-64
2022/04/01 08:26:07;;;;;;;30.40;14.60;;;;;;;4.77;94.88;96941.69;5068251;28;20032;-64
2022/04/01 08:28:32;;;;;;;22.38;11.15;;;;;;;4.97;91.24;96942.06;5079738;28;20020;-64
2022/04/01 08:30:58;;;;;;;21.10;11.80;;;;;;;4.97;88.23;96951.63;5071004;28;20031;-64
2022/04/01 08:33:23;;;;;;;25.33;11.07;;;;;;;4.85;90.66;96949.31;5077269;28;20033;-64
2022/04/01 08:35:49;;;;;;;24.05;11.07;;;;;;;4.86;91.59;96951.88;5079842;28;20024;-64
2022/04/01 08:38:15;;;;;;;24.88;11.93;;;;;;;4.86;91.18;96962.31;5070257;28;20059;-64
2022/04/01 08:40:41;;;;;;;23.02;12.00;;;;;;;4.79;91.28;96959.88;5083141;28;20025;-64
2022/04/01 08:43:06;;;;;;;20.25;11.25;;;;;;;4.71;91.28;96962.66;5073620;28;20031;-64
2022/04/01 08:45:34;;;;;;;20.63;11.38;;;;;;;4.61;90.24;96965.50;5076018;28;20368;-64
2022/04/01 08:48:00;;;;;;;19.77;10.70;;;;;;;4.59;92.10;96972.53;5081138;28;20328;-64
2022/04/01 08:50:26;;;;;;;18.50;10.65;;;;;;;4.52;92.18;96976.16;5070248;28;20205;-64
2022/04/01 08:52:52;;;;;;;23.42;10.45;;;;;;;4.54;90.39;96985.66;5081329;28;20021;-64
2022/04/01 08:55:18;;;;;;;20.63;11.70;;;;;;;4.55;91.72;96981.31;5075503;28;20208;-64
2022/04/01 08:57:43;;;;;;;18.55;10.45;;;;;;;4.64;90.43;96991.50;5074207;28;20034;-64
2022/04/01 09:00:14;;;;;;;20.27;11.55;;;;;;;4.57;90.84;96995.13;5082247;28;20033;-64
2022/04/01 09:02:41;;;;;;;23.87;12.43;;;;;;;4.60;91.32;96992.47;5053573;28;20109;-64
2022/04/01 09:05:07;;;;;;;23.85;11.95;;;;;;;4.60;92.21;97002.88;5079145;28;20315;-64
2022/04/01 09:07:34;;;;;;;20.58;10.85;;;;;;;4.56;93.36;97009.06;5077227;28;20028;-64
2022/04/01 09:10:08;;;;;;;19.42;10.02;;;;;;;4.75;93.05;97005.16;5071651;28;20029;-64
2022/04/01 09:12:35;;;;;;;18.08;10.15;;;;;;;4.82;92.48;97001.50;5082763;28;20284;-64
2022/04/01 09:15:03;;;;;;;17.35;9.75;;;;;;;4.92;91.86;97010.84;5072423;28;20025;-64
2022/04/01 09:17:45;;;;;;;19.75;10.55;;;;;;;4.90;92.50;97004.81;5071837;28;20013;-64
2022/04/01 09:20:11;;;;;;;15.07;8.50;;;;;;;5.01;92.65;97010.63;5078251;28;20025;-64
2022/04/01 09:22:38;;;;;;;16.00;8.98;;;;;;;5.12;92.14;97008.63;5069653;28;20204;-64
2022/04/01 09:25:13;;;;;;;18.02;9.70;;;;;;;5.08;91.78;97012.19;5076972;28;20044;-64
2022/04/01 09:27:41;;;;;;;14.60;8.75;;;;;;;4.92;90.29;97008.22;5074308;28;20031;-64
2022/04/01 09:30:09;;;;;;;15.55;8.60;;;;;;;4.90;89.97;97015.25;5081203;28;20031;-64
2022/04/01 09:32:42;;;;;;;13.55;8.40;;;;;;;4.83;89.52;97005.81;5082197;28;20115;-64
2022/04/01 09:35:10;;;;;;;13.57;7.60;;;;;;;4.92;86.64;97010.84;5073083;28;20087;-64
2022/04/01 09:37:42;;;;;;;15.27;8.60;;;;;;;4.79;89.54;97006.78;5074215;28;20021;-64
2022/04/01 09:40:10;;;;;;;14.02;8.07;;;;;;;4.93;90.37;97005.59;5081368;28;20024;-64
2022/04/01 09:42:36;;;;;;;13.13;8.00;;;;;;;5.14;90.08;97012.91;5069284;28;20189;-64
2022/04/01 09:45:03;;;;;;;16.60;8.32;;;;;;;5.10;90.40;97023.44;5079024;28;20059;-64
2022/04/01 09:47:36;;;;;;;19.17;8.38;;;;;;;5.21;89.59;97016.22;5069637;28;20028;-64
2022/04/01 09:50:09;;;;;;;18.52;9.57;;;;;;;5.39;88.42;97015.78;5064527;28;20016;-64
2022/04/01 09:52:36;;;;;;;16.27;9.63;;;;;;;5.37;89.02;97017.56;5073150;28;20040;-64
2022/04/01 09:55:02;;;;;;;14.63;8.05;;;;;;;5.33;88.17;97015.94;5069889;28;20048;-64
2022/04/01 09:57:28;;;;;;;16.20;8.13;;;;;;;5.26;88.66;97019.59;5071056;28;20021;-64
2022/04/01 09:59:54;;;;;;;16.02;9.38;;;;;;;5.13;87.62;97018.16;5072300;28;20050;-64
2022/04/01 10:02:20;;;;;;;16.65;8.77;;;;;;;5.19;88.20;97020.63;5085162;28;20025;-64
2022/04/01 10:04:45;;;;;;;14.20;8.93;;;;;;;5.45;89.99;97016.50;5071127;28;20021;-64
2022/04/01 10:07:12;;;;;;;17.20;9.13;;;;;;;5.22;88.45;97023.16;5081648;28;20057;-64
2022/04/01 10:09:39;;;;;;;15.50;9.05;;;;;;;5.18;87.78;97026.72;5069758;28;20020;-64
2022/04/01 10:12:09;;;;;;;13.73;7.57;;;;;;;5.08;86.34;97030.44;5076522;28;20017;-63
2022/04/01 10:14:38;;;;;;;14.98;9.02;;;;;;;5.14;88.25;97022.47;5077410;28;20096;-63
2022/04/01 10:17:07;;;;;;;13.38;7.65;;;;;;;5.08;87.78;97020.88;5068554;28;20370;-63
2022/04/01 10:19:34;;;;;;;17.60;8.90;;;;;;;5.04;89.18;97020.97;5054814;28;20044;-63
2022/04/01 10:22:01;;;;;;;16.85;8.50;;;;;;;5.16;90.12;97025.91;5050974;28;20017;-63
2022/04/01 10:24:51;;;;;;;16.63;8.02;;;;;;;5.15;88.39;97032.00;5051739;28;20217;-63
2022/04/01 10:27:30;;;;;;;17.40;7.75;;;;;;;5.21;87.16;97034.47;5062294;28;20217;-66
2022/04/01 10:29:59;;;;;;;15.10;8.02;;;;;;;5.17;86.58;97030.22;5052359;28;20124;-66
2022/04/01 10:32:39;;;;;;;14.27;7.45;;;;;;;5.04;86.61;97028.81;5049798;28;20033;-66
2022/04/01 10:35:07;;;;;;;12.40;8.02;;;;;;;5.16;86.49;97033.75;5048141;28;20032;-66
2022/04/01 10:37:33;;;;;;;16.08;7.75;;;;;;;5.22;85.24;97033.59;5051692;28;20019;-66
2022/04/01 10:40:16;;;;;;;10.65;6.80;;;;;;;5.17;83.24;97035.44;5051667;28;20321;-66
2022/04/01 10:42:43;;;;;;;17.00;7.63;;;;;;;5.23;81.53;97045.72;5047236;28;20091;-65
2022/04/01 10:45:15;;;;;;;12.50;7.38;;;;;;;5.12;84.34;97038.16;5078246;28;20048;-65
2022/04/01 10:53:33;;;;;;;15.68;8.30;;;;;;;4.93;85.21;97051.66;5061288;28;20048;-65
2022/04/01 10:56:26;;;;;;;12.38;6.78;;;;;;;5.14;83.13;97053.78;5056721;28;20029;-65
2022/04/01 10:59:09;;;;;;;12.10;7.22;;;;;;;5.16;85.12;97054.59;5051852;28;20031;-65
2022/04/01 11:01:43;;;;;;;11.43;7.03;;;;;;;5.09;83.75;97061.69;5056629;28;20032;-65
2022/04/01 11:04:12;;;;;;;12.25;6.80;;;;;;;4.93;83.35;97072.53;5043607;28;20060;-65
2022/04/01 11:07:07;;;;;;;15.50;6.70;;;;;;;5.02;82.86;97072.28;5043288;28;20024;-65
2022/04/01 11:09:50;;;;;;;10.25;6.43;;;;;;;5.02;82.25;97072.28;5042809;28;20036;-65
2022/04/01 11:12:19;;;;;;;15.13;7.78;;;;;;;4.87;82.77;97070.03;5043160;28;20018;-65
2022/04/01 11:14:53;;;;;;;12.98;7.18;;;;;;;5.09;81.21;97064.28;5043106;28;20025;-65
2022/04/01 11:17:23;;;;;;;12.23;7.30;;;;;;;5.11;81.66;97072.09;5048389;28;20088;-65
2022/04/01 11:20:02;;;;;;;14.25;7.50;;;;;;;4.98;82.33;97075.88;5053648;28;20043;-65
2022/04/01 11:22:42;;;;;;;13.27;7.40;;;;;;;5.11;82.94;97086.00;5048278;28;20346;-63
2022/04/01 11:25:14;;;;;;;12.50;6.82;;;;;;;4.97;80.12;97075.00;5058018;28;20040;-63
2022/04/01 11:28:08;;;;;;;15.55;8.98;;;;;;;4.91;81.25;97075.16;5063388;28;20088;-63
2022/04/01 11:30:51;;;;;;;11.43;6.30;;;;;;;4.85;83.48;97080.50;5063474;28;20041;-63
2022/04/01 11:33:21;;;;;;;11.45;6.72;;;;;;;4.81;82.54;97075.38;5063686;28;20059;-63
2022/04/01 11:35:53;;;;;;;19.13;7.68;;;;;;;5.01;80.96;97081.88;5063740;28;20352;-63
2022/04/01 11:38:21;;;;;;;12.27;7.18;;;;;;;5.13;82.32;97091.19;5063791;28;20331;-63
2022/04/01 11:40:50;;;;;;;19.48;6.43;;;;;;;5.28;80.09;97096.06;5063742;28;20071;-63
2022/04/01 11:43:18;;;;;;;14.90;7.75;;;;;;;5.09;81.51;97099.97;5063763;28;20024;-63
2022/04/01 11:45:44;;;;;;;12.10;6.97;;;;;;;5.05;79.80;97093.94;5063739;28;20032;-63
2022/04/01 11:48:28;;;;;;;13.38;7.18;;;;;;;5.21;79.67;97110.09;5063684;28;20331;-63
2022/04/01 11:50:57;;;;;;;11.15;5.93;;;;;;;5.21;77.87;97090.09;5063662;28;20372;-63